Pagrindinis puslapis
METAR-TAF:

METAR-TAF

Oro uostai :

Ki Vestas, Florida, Jungtinės Amerikos Valstijos

platuma: 24-33-13N, ilguma: 081-45-13W, Aukštis: 1 m

Dabartinis oras

Ataskaita buvo paskelbta 57 minutes, ne 18:53 UTC
Vėjas 10 kt iš Vakarų/Pietvakarių
Temperatūra 28°C
Drėgmė 70%
Slėgis 1011 hPa
Matomumas: 16.1 km
Giedras dangus

METAR: KEYW 121853Z 24010KT 10SM CLR 28/22 A2986 RMK AO2 SLP110 T02780222 $

Laikas: 15:50 (19:50 UTC)

Prognozė

Ataskaita buvo paskelbta 2 valandos ir 4 minutes, ne 17:46 UTC
Prognozė galioja nuo 12 metu 18 UTC su 13 metu 18 UTC
Vėjas 11 kt iš Pietvakarių su gūsio iki 19 kt
Matomumas: 10 km
Mažai debesys ne aukštis 2000 ft
Išsisklaidę debesys ne aukštis 15000 ft
Nuo 12 metu 2100 UTC
Vėjas 10 kt iš Vakarų/Šiaurės Vakarų
Matomumas: 10 km
Mažai debesys ne aukštis 2000 ft
Nuo 13 metu 0300 UTC
Vėjas 9 kt iš Šiaurės Rytų
Matomumas: 10 km
Mažai debesys ne aukštis 2500 ft

TAF: KEYW 121746Z 1218/1318 22011G19KT P6SM FEW020 SCT150 FM122100 30010KT P6SM FEW020 FM130300 04009KT P6SM FEW025

Orai ataskaitas ir orų prognozės (METAR, TAF).

turimą stotys yra geltonos ir raudonos taškus žemėlapyje.

Perkelti pele per norėdami pamatyti stoties vardą.

Tada spustelėkite, norėdami matyti oro stebėjimo ir prognozės.

Norėdami pakeisti žemėlapį: spustelėkite ant žalios mygtukų su juodo kryžiaus žemyn,; žalią mygtuką su brūkšneliu, jei norite nutolinti; arba žalių rodyklių gretimoms žemėlapius.


METAR-TAF: